createdAt,value
2023-04-19T00:00:08.736Z,98594.23
2023-04-19T00:03:02.285Z,98591.41
2023-04-19T00:05:34.686Z,98588.10
2023-04-19T00:08:07.440Z,98587.31
2023-04-19T00:10:40.084Z,98587.01
2023-04-19T00:13:12.708Z,98585.51
2023-04-19T00:15:45.007Z,98584.00
2023-04-19T00:18:17.241Z,98582.77
2023-04-19T00:20:50.238Z,98576.43
2023-04-19T00:23:22.699Z,98569.85
2023-04-19T00:25:54.777Z,98568.21
2023-04-19T00:28:27.771Z,98562.60
2023-04-19T00:30:59.898Z,98564.25
2023-04-19T00:33:35.420Z,98560.75
2023-04-19T00:36:08.116Z,98556.89
2023-04-19T00:38:40.150Z,98553.10
2023-04-19T00:41:12.303Z,98546.63
2023-04-19T00:43:44.401Z,98544.28
2023-04-19T00:46:17.041Z,98543.39
2023-04-19T00:48:51.725Z,98543.69
2023-04-19T00:51:23.890Z,98537.15
2023-04-19T00:53:56.363Z,98534.13
2023-04-19T00:56:36.142Z,98534.98
2023-04-19T00:59:09.997Z,98531.84
2023-04-19T01:01:42.793Z,98527.84
2023-04-19T01:04:15.165Z,98526.03
2023-04-19T01:06:48.017Z,98523.08
2023-04-19T01:09:20.110Z,98518.33
2023-04-19T01:11:54.229Z,98516.48
2023-04-19T01:14:26.253Z,98512.82
2023-04-19T01:16:59.712Z,98513.07
2023-04-19T01:19:32.131Z,98512.44
2023-04-19T01:22:04.303Z,98506.94
2023-04-19T01:24:36.919Z,98502.40
2023-04-19T01:27:08.997Z,98503.83
2023-04-19T01:29:41.302Z,98500.73
2023-04-19T01:32:14.141Z,98499.83
2023-04-19T01:34:46.245Z,98496.28
2023-04-19T01:37:20.474Z,98493.98
2023-04-19T01:39:52.557Z,98495.96
2023-04-19T01:42:24.766Z,98501.04
2023-04-19T01:44:57.842Z,98501.32
2023-04-19T01:47:31.497Z,98500.91
2023-04-19T01:50:03.625Z,98496.91
2023-04-19T01:52:35.703Z,98492.15
2023-04-19T01:55:08.482Z,98497.01
2023-04-19T01:57:40.956Z,98494.02
2023-04-19T02:00:15.293Z,98491.38
2023-04-19T02:02:47.587Z,98488.89
2023-04-19T02:05:21.111Z,98486.89
2023-04-19T02:07:53.990Z,98486.30
2023-04-19T02:10:26.579Z,98480.91
2023-04-19T02:12:58.705Z,98480.00
2023-04-19T02:15:33.797Z,98484.17
2023-04-19T02:18:06.997Z,98479.54
2023-04-19T02:20:39.379Z,98476.56
2023-04-19T02:23:11.431Z,98481.06
2023-04-19T02:25:44.315Z,98474.22
2023-04-19T02:28:16.313Z,98470.83
2023-04-19T02:30:48.521Z,98470.02
2023-04-19T02:33:24.947Z,98471.54
2023-04-19T02:35:57.086Z,98474.15
2023-04-19T02:38:29.094Z,98467.27
2023-04-19T02:41:01.822Z,98467.36
2023-04-19T02:43:34.845Z,98465.44
2023-04-19T02:46:07.189Z,98459.89
2023-04-19T02:48:39.224Z,98463.82
2023-04-19T02:51:15.720Z,98459.83
2023-04-19T02:53:48.329Z,98458.63
2023-04-19T02:56:20.447Z,98456.55
2023-04-19T02:58:54.559Z,98450.98
2023-04-19T03:01:26.827Z,98446.91
2023-04-19T03:04:02.145Z,98442.71
2023-04-19T03:06:34.772Z,98435.95
2023-04-19T03:09:07.218Z,98433.74
2023-04-19T03:11:39.411Z,98429.81
2023-04-19T03:14:11.702Z,98422.84
2023-04-19T03:16:43.842Z,98422.17
2023-04-19T03:19:16.038Z,98416.38
2023-04-19T03:21:55.747Z,98417.88
2023-04-19T03:24:32.041Z,98410.38
2023-04-19T03:27:10.213Z,98410.39
2023-04-19T03:29:44.283Z,98402.14
2023-04-19T03:32:17.361Z,98389.75
2023-04-19T03:34:49.522Z,98388.23
2023-04-19T03:37:23.141Z,98388.91
2023-04-19T03:39:55.495Z,98388.33
2023-04-19T03:42:32.551Z,98385.25
2023-04-19T03:45:13.128Z,98383.79
2023-04-19T03:47:51.490Z,98383.79
2023-04-19T03:50:23.752Z,98381.46
2023-04-19T03:52:56.640Z,98386.13
2023-04-19T03:55:28.878Z,98382.38
2023-04-19T03:58:01.365Z,98381.66
2023-04-19T04:00:56.255Z,98378.52
2023-04-19T04:03:29.139Z,98379.70
2023-04-19T04:06:02.118Z,98377.72
2023-04-19T04:08:36.489Z,98376.35
2023-04-19T04:11:08.719Z,98378.63
2023-04-19T04:13:41.166Z,98377.63
2023-04-19T04:16:18.037Z,98371.23
2023-04-19T04:18:50.409Z,98372.96
2023-04-19T04:21:24.312Z,98379.63
2023-04-19T04:23:57.552Z,98382.09
2023-04-19T04:26:39.560Z,98385.19
2023-04-19T04:29:38.152Z,98379.86
2023-04-19T04:32:11.496Z,98376.44
2023-04-19T04:34:45.693Z,98379.55
2023-04-19T04:37:22.809Z,98385.57
2023-04-19T04:39:55.095Z,98382.81
2023-04-19T04:42:27.897Z,98376.91
2023-04-19T04:45:01.753Z,98376.99
2023-04-19T04:47:35.863Z,98380.95
2023-04-19T04:50:12.670Z,98382.86
2023-04-19T04:52:44.699Z,98386.95
2023-04-19T04:55:22.353Z,98389.31
2023-04-19T04:57:54.457Z,98387.27
2023-04-19T05:00:32.575Z,98392.45
2023-04-19T05:03:09.785Z,98395.42
2023-04-19T05:05:47.590Z,98396.39
2023-04-19T05:08:19.805Z,98399.94
2023-04-19T05:10:52.632Z,98401.16
2023-04-19T05:13:26.327Z,98400.55
2023-04-19T05:16:00.002Z,98399.00
2023-04-19T05:18:32.724Z,98398.76
2023-04-19T05:21:06.951Z,98398.35
2023-04-19T05:23:39.872Z,98398.21
2023-04-19T05:26:15.463Z,98400.41
2023-04-19T05:28:48.267Z,98400.95
2023-04-19T05:31:34.472Z,98400.86
2023-04-19T05:34:27.087Z,98402.32
2023-04-19T05:37:00.586Z,98406.33
2023-04-19T05:39:32.743Z,98402.66
2023-04-19T05:42:05.090Z,98403.57
2023-04-19T05:44:37.274Z,98403.83
2023-04-19T05:47:10.054Z,98396.38
2023-04-19T05:50:00.930Z,98397.42
2023-04-19T05:52:37.258Z,98397.30
2023-04-19T05:55:15.622Z,98393.58
2023-04-19T05:57:49.670Z,98388.21
2023-04-19T06:00:24.232Z,98387.67
2023-04-19T06:03:00.578Z,98380.36
2023-04-19T06:05:33.149Z,98379.18
2023-04-19T06:08:05.677Z,98378.91
2023-04-19T06:10:51.837Z,98375.94
2023-04-19T06:13:27.681Z,98373.77
2023-04-19T06:16:00.399Z,98368.06
2023-04-19T06:18:32.741Z,98360.17
2023-04-19T06:21:06.455Z,98356.64
2023-04-19T06:23:38.674Z,98356.55
2023-04-19T06:26:14.352Z,98361.46
2023-04-19T06:28:46.405Z,98362.66
2023-04-19T06:31:18.565Z,98368.61
2023-04-19T06:33:50.892Z,98368.48
2023-04-19T06:36:23.286Z,98372.36
2023-04-19T06:42:42.702Z,98381.34
2023-04-19T06:45:17.290Z,98379.96
2023-04-19T06:52:11.237Z,98378.25
2023-04-19T06:54:43.331Z,98380.50
2023-04-19T07:01:52.010Z,98381.16
2023-04-19T07:04:30.486Z,98383.33
2023-04-19T07:07:48.937Z,98381.29
2023-04-19T07:11:02.015Z,98381.91
2023-04-19T07:18:45.345Z,98381.80
2023-04-19T07:21:19.236Z,98383.02
2023-04-19T07:23:51.466Z,98381.44
2023-04-19T07:26:30.168Z,98379.55
2023-04-19T07:33:33.093Z,98382.86
2023-04-19T07:36:12.679Z,98385.21
2023-04-19T07:38:44.866Z,98387.10
2023-04-19T07:41:51.270Z,98391.41
2023-04-19T07:44:23.609Z,98386.33
2023-04-19T07:51:29.835Z,98389.23
2023-04-19T07:54:10.688Z,98394.41
2023-04-19T08:02:01.356Z,98391.32
2023-04-19T08:04:35.764Z,98388.34
2023-04-19T08:15:03.785Z,98387.98
2023-04-19T08:22:22.613Z,98395.00
2023-04-19T08:29:06.142Z,98387.77
2023-04-19T08:32:21.936Z,98386.81
2023-04-19T08:35:01.135Z,98386.59
2023-04-19T08:37:33.415Z,98385.58
2023-04-19T08:41:01.792Z,98384.76
2023-04-19T08:52:51.854Z,98386.13
2023-04-19T08:56:24.058Z,98385.77
2023-04-19T09:00:02.792Z,98386.55
2023-04-19T09:06:39.116Z,98384.61
2023-04-19T09:12:31.868Z,98382.20
2023-04-19T09:15:11.883Z,98382.23
2023-04-19T09:22:16.614Z,98376.19
2023-04-19T09:28:16.793Z,98378.05
2023-04-19T09:31:02.298Z,98375.42
2023-04-19T09:38:01.372Z,98373.24
2023-04-19T09:52:23.989Z,98375.08
2023-04-19T09:55:11.392Z,98375.65
2023-04-19T09:57:50.493Z,98376.22
2023-04-19T10:00:41.788Z,98377.98
2023-04-19T10:04:50.453Z,98377.86
2023-04-19T10:07:31.016Z,98376.09
2023-04-19T10:14:33.374Z,98379.10
2023-04-19T10:17:39.297Z,98376.86
2023-04-19T10:36:18.728Z,98377.81
2023-04-19T10:39:54.495Z,98378.13
2023-04-19T10:47:09.586Z,98382.40
2023-04-19T10:54:50.991Z,98379.42
2023-04-19T10:57:28.127Z,98385.48
2023-04-19T11:00:21.927Z,98384.84
2023-04-19T11:03:01.344Z,98384.73
2023-04-19T11:13:50.088Z,98375.42
2023-04-19T11:16:31.136Z,98375.45
2023-04-19T11:19:30.060Z,98373.13
2023-04-19T11:22:02.600Z,98375.14
2023-04-19T11:24:36.200Z,98378.44
2023-04-19T11:39:41.181Z,98379.11
2023-04-19T11:46:33.209Z,98377.69
2023-04-19T11:57:45.006Z,98379.05
2023-04-19T12:00:34.838Z,98378.65
2023-04-19T12:03:08.930Z,98378.30
2023-04-19T12:05:41.737Z,98378.46
2023-04-19T12:17:35.321Z,98379.34
2023-04-19T12:20:12.446Z,98380.27
2023-04-19T12:23:23.434Z,98382.87
2023-04-19T12:29:50.962Z,98385.64
2023-04-19T12:32:23.176Z,98386.43
2023-04-19T12:43:38.820Z,98383.17
2023-04-19T12:46:11.156Z,98384.75
2023-04-19T12:56:26.853Z,98384.52
2023-04-19T12:58:59.003Z,98384.09
2023-04-19T13:05:56.578Z,98381.85
2023-04-19T13:08:44.228Z,98384.96
2023-04-19T13:11:23.487Z,98380.26
2023-04-19T13:15:08.149Z,98382.42
2023-04-19T13:17:46.956Z,98388.83
2023-04-19T13:20:45.471Z,98383.81
2023-04-19T13:30:59.228Z,98388.02
2023-04-19T13:33:54.113Z,98384.05
2023-04-19T13:36:26.228Z,98387.55
2023-04-19T13:39:20.901Z,98388.26
2023-04-19T13:45:40.595Z,98383.77
2023-04-19T13:48:13.171Z,98384.14
2023-04-19T13:55:18.076Z,98383.14
2023-04-19T14:02:23.114Z,98380.04
2023-04-19T14:05:01.849Z,98376.08
2023-04-19T14:15:56.674Z,98382.85
2023-04-19T14:19:07.948Z,98384.55
2023-04-19T14:21:40.012Z,98382.09
2023-04-19T14:28:45.083Z,98390.54
2023-04-19T14:35:49.159Z,98400.80
2023-04-19T14:38:21.239Z,98396.98
2023-04-19T14:40:53.424Z,98397.03
2023-04-19T14:43:26.254Z,98403.06
2023-04-19T14:51:03.755Z,98405.20
2023-04-19T14:53:36.035Z,98406.57
2023-04-19T14:56:18.154Z,98405.54
2023-04-19T14:59:35.322Z,98407.25
2023-04-19T15:02:14.282Z,98409.52
2023-04-19T15:04:46.600Z,98408.58
2023-04-19T15:07:18.824Z,98408.69
2023-04-19T15:09:50.809Z,98409.27
2023-04-19T15:12:22.865Z,98410.14
2023-04-19T15:14:54.883Z,98407.77
2023-04-19T15:17:26.968Z,98411.34
2023-04-19T15:19:59.766Z,98413.06
2023-04-19T15:22:31.918Z,98418.52
2023-04-19T15:25:04.800Z,98417.21
2023-04-19T15:27:36.805Z,98420.12
2023-04-19T15:30:12.456Z,98416.11
2023-04-19T15:32:44.890Z,98417.52
2023-04-19T15:35:17.042Z,98418.65
2023-04-19T15:37:50.092Z,98422.73
2023-04-19T15:40:24.512Z,98421.41
2023-04-19T15:42:56.748Z,98422.61
2023-04-19T15:45:29.919Z,98425.00
2023-04-19T15:48:02.117Z,98426.67
2023-04-19T15:50:34.312Z,98424.73
2023-04-19T15:53:08.920Z,98423.33
2023-04-19T15:55:41.836Z,98426.80
2023-04-19T15:58:13.889Z,98424.64
2023-04-19T16:00:45.989Z,98431.59
2023-04-19T16:03:18.162Z,98431.07
2023-04-19T16:05:53.919Z,98428.89
2023-04-19T16:08:26.182Z,98428.09
2023-04-19T16:10:58.357Z,98427.82
2023-04-19T16:13:31.564Z,98432.70
2023-04-19T16:16:04.016Z,98433.55
2023-04-19T16:18:36.212Z,98436.58
2023-04-19T16:21:08.772Z,98437.82
2023-04-19T16:23:42.070Z,98438.88
2023-04-19T16:26:14.430Z,98441.41
2023-04-19T16:28:46.518Z,98445.89
2023-04-19T16:31:19.312Z,98445.69
2023-04-19T16:33:51.391Z,98439.88
2023-04-19T16:36:23.520Z,98445.59
2023-04-19T16:38:56.013Z,98446.80
2023-04-19T16:41:28.219Z,98451.27
2023-04-19T16:44:00.270Z,98454.86
2023-04-19T16:46:32.528Z,98457.44
2023-04-19T16:52:11.720Z,98460.13
2023-04-19T16:54:44.809Z,98464.08
2023-04-19T16:57:16.953Z,98467.85
2023-04-19T16:59:49.141Z,98468.77
2023-04-19T17:02:21.739Z,98463.82
2023-04-19T17:04:53.976Z,98465.04
2023-04-19T17:07:26.729Z,98465.14
2023-04-19T17:09:58.999Z,98469.05
2023-04-19T17:12:31.123Z,98470.23
2023-04-19T17:15:03.358Z,98472.34
2023-04-19T17:17:35.636Z,98471.86
2023-04-19T17:20:10.037Z,98474.98
2023-04-19T17:22:42.497Z,98476.66
2023-04-19T17:25:14.557Z,98479.67
2023-04-19T17:27:46.815Z,98480.01
2023-04-19T17:30:19.063Z,98479.84
2023-04-19T17:32:51.670Z,98480.98
2023-04-19T17:35:23.962Z,98484.09
2023-04-19T17:37:56.079Z,98486.14
2023-04-19T17:40:29.424Z,98487.41
2023-04-19T17:43:02.097Z,98492.56
2023-04-19T17:45:34.245Z,98491.09
2023-04-19T17:48:07.109Z,98493.56
2023-04-19T17:50:39.485Z,98496.48
2023-04-19T17:53:11.695Z,98497.27
2023-04-19T17:55:43.970Z,98499.48
2023-04-19T17:58:16.362Z,98500.30
2023-04-19T18:00:48.986Z,98499.55
2023-04-19T18:03:21.156Z,98504.40
2023-04-19T18:05:53.449Z,98506.73
2023-04-19T18:08:25.672Z,98509.44
2023-04-19T18:10:57.759Z,98512.95
2023-04-19T18:13:30.794Z,98512.02
2023-04-19T18:16:05.110Z,98516.30
2023-04-19T18:18:37.237Z,98520.05
2023-04-19T18:21:09.793Z,98518.10
2023-04-19T18:23:41.939Z,98516.83
2023-04-19T18:26:14.311Z,98518.07
2023-04-19T18:28:46.731Z,98515.66
2023-04-19T18:31:18.794Z,98521.09
2023-04-19T18:33:51.156Z,98520.08
2023-04-19T18:36:23.970Z,98522.61
2023-04-19T18:38:56.168Z,98517.45
2023-04-19T18:41:31.682Z,98515.77
2023-04-19T18:46:38.719Z,98516.63
2023-04-19T18:49:12.978Z,98518.76
2023-04-19T18:51:45.205Z,98516.49
2023-04-19T18:57:23.506Z,98517.88
2023-04-19T18:59:59.616Z,98525.63
2023-04-19T19:02:34.117Z,98526.00
2023-04-19T19:05:08.554Z,98525.35
2023-04-19T19:07:41.795Z,98519.45
2023-04-19T19:10:19.398Z,98515.07
2023-04-19T19:12:53.689Z,98518.78
2023-04-19T19:15:25.976Z,98522.68
2023-04-19T19:17:58.024Z,98517.14
2023-04-19T19:20:31.084Z,98520.02
2023-04-19T19:23:03.346Z,98521.90
2023-04-19T19:25:35.520Z,98522.52
2023-04-19T19:28:10.041Z,98524.61
2023-04-19T19:30:44.980Z,98526.44
2023-04-19T19:33:18.103Z,98530.74
2023-04-19T19:35:50.162Z,98536.48
2023-04-19T19:38:22.249Z,98537.46
2023-04-19T19:41:34.656Z,98540.83
2023-04-19T19:43:46.374Z,98545.84
2023-04-19T19:46:18.620Z,98546.85
2023-04-19T19:48:53.472Z,98553.83
2023-04-19T19:51:53.197Z,98557.40
2023-04-19T19:54:21.164Z,98556.24
2023-04-19T19:57:39.121Z,98557.02
2023-04-19T19:59:51.363Z,98558.29
2023-04-19T20:02:25.024Z,98553.86
2023-04-19T20:04:57.437Z,98553.12
2023-04-19T20:07:53.453Z,98552.35
2023-04-19T20:10:21.697Z,98558.49
2023-04-19T20:15:30.200Z,98559.04
2023-04-19T20:18:02.400Z,98560.27
2023-04-19T20:20:34.442Z,98557.64
2023-04-19T20:23:06.784Z,98559.87
2023-04-19T20:25:39.722Z,98558.95
2023-04-19T20:28:12.718Z,98554.28
2023-04-19T20:30:44.851Z,98555.38
2023-04-19T20:33:17.085Z,98552.42
2023-04-19T20:35:53.638Z,98546.96
2023-04-19T20:38:26.658Z,98548.85
2023-04-19T20:41:00.588Z,98549.10
2023-04-19T20:43:32.974Z,98548.05
2023-04-19T20:46:07.354Z,98549.05
2023-04-19T20:48:39.475Z,98545.73
2023-04-19T20:51:12.774Z,98541.89
2023-04-19T20:53:44.839Z,98545.54
2023-04-19T20:56:16.909Z,98545.70
2023-04-19T20:58:48.970Z,98549.36
2023-04-19T21:01:23.801Z,98549.27
2023-04-19T21:03:56.774Z,98552.91
2023-04-19T21:06:29.001Z,98554.35
2023-04-19T21:09:01.130Z,98551.40
2023-04-19T21:11:33.198Z,98554.76
2023-04-19T21:14:05.305Z,98557.44
2023-04-19T21:16:37.957Z,98563.17
2023-04-19T21:19:10.182Z,98563.31
2023-04-19T21:21:42.198Z,98559.96
2023-04-19T21:24:14.306Z,98557.83
2023-04-19T21:26:46.445Z,98557.65
2023-04-19T21:29:18.910Z,98555.94
2023-04-19T21:31:51.344Z,98551.63
2023-04-19T21:34:24.094Z,98553.02
2023-04-19T21:36:56.140Z,98551.13
2023-04-19T21:39:28.301Z,98552.88
2023-04-19T21:42:00.433Z,98557.37
2023-04-19T21:44:32.532Z,98556.85
2023-04-19T21:47:04.768Z,98554.90
2023-04-19T21:49:37.148Z,98556.34
2023-04-19T21:52:11.359Z,98553.96
2023-04-19T21:54:43.461Z,98553.88
2023-04-19T21:57:17.604Z,98549.91
2023-04-19T21:59:53.103Z,98555.96
2023-04-19T22:02:25.342Z,98557.15
2023-04-19T22:05:00.381Z,98556.79
2023-04-19T22:07:32.505Z,98553.78
2023-04-19T22:10:05.894Z,98551.38
2023-04-19T22:12:48.057Z,98555.36
2023-04-19T22:15:28.049Z,98559.52
2023-04-19T22:18:03.418Z,98556.94
2023-04-19T22:20:36.015Z,98559.98
2023-04-19T22:23:08.459Z,98553.83
2023-04-19T22:25:41.144Z,98553.15
2023-04-19T22:28:13.400Z,98551.55
2023-04-19T22:30:45.635Z,98553.46
2023-04-19T22:33:17.733Z,98550.86
2023-04-19T22:35:49.948Z,98549.85
2023-04-19T22:38:25.013Z,98549.04
2023-04-19T22:40:57.381Z,98550.05
2023-04-19T22:43:29.438Z,98551.51
2023-04-19T22:46:01.718Z,98550.59
2023-04-19T22:48:35.045Z,98553.11
2023-04-19T22:51:07.516Z,98552.41
2023-04-19T22:53:40.791Z,98550.04
2023-04-19T22:56:13.214Z,98543.94
2023-04-19T22:58:45.317Z,98541.62
2023-04-19T23:01:17.672Z,98543.14
2023-04-19T23:03:49.764Z,98543.02
2023-04-19T23:06:21.773Z,98547.91
2023-04-19T23:08:54.709Z,98545.56
2023-04-19T23:11:29.885Z,98538.67
2023-04-19T23:14:02.062Z,98542.21
2023-04-19T23:16:34.546Z,98542.48
2023-04-19T23:19:07.754Z,98546.70
2023-04-19T23:21:40.525Z,98544.54
2023-04-19T23:24:12.780Z,98546.06
2023-04-19T23:26:44.809Z,98547.38
2023-04-19T23:29:18.694Z,98548.88
2023-04-19T23:31:52.642Z,98549.68
2023-04-19T23:34:25.039Z,98550.67
2023-04-19T23:36:57.613Z,98551.85
2023-04-19T23:39:29.721Z,98550.52
2023-04-19T23:42:02.217Z,98550.60
2023-04-19T23:44:34.244Z,98549.11
2023-04-19T23:47:06.473Z,98552.29
2023-04-19T23:49:38.603Z,98549.79
2023-04-19T23:52:11.567Z,98545.30
2023-04-19T23:54:44.005Z,98544.51
2023-04-19T23:57:16.203Z,98541.96
2023-04-19T23:59:48.368Z,98541.88
